Time;durP1;ratioP1;P1;durP2;ratioP2;P2;SDS_P1;SDS_P2;PMS_P1;PMS_P2;Temp;Humidity;BMP_temperature;BMP_pressure;BME280_temperature;BME280_humidity;BME280_pressure;Samples;Min_cycle;Max_cycle;Signal;HPM_P1;HPM_P2
2022/12/09 00:01:57;;;;;;;18.90;8.90;;;2.80;99.90;;;;;;10124258;28;20082;-63
2022/12/09 00:06:48;;;;;;;19.83;9.07;;;2.70;99.90;;;;;;10114233;28;20036;-64
2022/12/09 00:11:39;;;;;;;18.02;8.02;;;2.60;99.90;;;;;;10123087;28;20033;-64
2022/12/09 00:16:29;;;;;;;18.77;7.88;;;2.60;99.90;;;;;;10118542;28;20044;-63
2022/12/09 00:21:30;;;;;;;21.10;8.70;;;2.60;99.90;;;;;;10113441;28;20021;-66
2022/12/09 00:26:23;;;;;;;20.15;8.27;;;2.50;99.90;;;;;;10114680;28;20033;-64
2022/12/09 00:31:16;;;;;;;18.48;7.65;;;2.50;99.90;;;;;;10117033;28;20037;-64
2022/12/09 00:36:10;;;;;;;17.27;7.13;;;2.50;99.90;;;;;;10106287;28;20037;-64
2022/12/09 00:41:01;;;;;;;16.67;7.88;;;2.50;99.90;;;;;;10108056;28;20598;-64
2022/12/09 00:45:52;;;;;;;19.38;8.65;;;2.50;99.90;;;;;;10104976;28;20083;-63
2022/12/09 00:50:44;;;;;;;16.00;7.35;;;2.50;99.90;;;;;;10106319;28;20037;-65
2022/12/09 00:55:35;;;;;;;19.33;8.68;;;2.50;99.90;;;;;;10123905;28;20075;-64
2022/12/09 01:00:25;;;;;;;18.77;8.35;;;2.40;99.90;;;;;;10123861;28;20372;-63
2022/12/09 01:05:16;;;;;;;18.83;8.60;;;2.40;99.90;;;;;;10130668;28;20125;-62
2022/12/09 01:10:07;;;;;;;19.23;8.55;;;2.40;99.90;;;;;;10127002;28;20044;-62
2022/12/09 01:14:58;;;;;;;15.57;7.95;;;2.40;99.90;;;;;;10117768;28;20020;-62
2022/12/09 01:19:48;;;;;;;19.17;8.95;;;2.40;99.90;;;;;;10130330;28;20032;-63
2022/12/09 01:24:39;;;;;;;18.65;8.75;;;2.20;99.90;;;;;;10134861;28;20075;-63
2022/12/09 01:29:30;;;;;;;19.05;8.60;;;2.10;99.90;;;;;;10120569;28;20103;-64
2022/12/09 01:34:20;;;;;;;20.73;9.10;;;2.00;99.90;;;;;;10123428;28;20023;-63
2022/12/09 01:39:11;;;;;;;21.73;8.25;;;1.90;99.90;;;;;;10125240;28;20640;-62
2022/12/09 01:44:14;;;;;;;21.17;9.45;;;1.90;99.90;;;;;;10119513;28;20028;-64
2022/12/09 01:49:07;;;;;;;15.20;8.48;;;1.90;99.90;;;;;;10115364;28;20036;-64
2022/12/09 01:53:58;;;;;;;16.08;7.95;;;1.90;99.90;;;;;;10108341;28;20013;-63
2022/12/09 01:58:50;;;;;;;23.20;9.98;;;1.90;99.90;;;;;;10124862;28;20040;-63
2022/12/09 02:03:41;;;;;;;19.13;8.27;;;1.70;99.90;;;;;;10134252;28;20025;-64
2022/12/09 02:08:31;;;;;;;24.25;8.82;;;1.70;99.90;;;;;;10128223;28;20055;-62
2022/12/09 02:13:26;;;;;;;23.63;8.85;;;1.70;99.90;;;;;;10115406;28;20040;-63
2022/12/09 02:18:23;;;;;;;20.08;8.25;;;1.60;99.90;;;;;;10127764;28;20039;-63
2022/12/09 02:23:38;;;;;;;23.02;7.18;;;1.50;99.90;;;;;;10126813;28;20021;-62
2022/12/09 02:28:29;;;;;;;17.48;7.53;;;1.40;99.90;;;;;;10113491;28;20020;-63
2022/12/09 02:33:54;;;;;;;14.50;7.05;;;1.30;99.90;;;;;;10129937;28;20036;-62
2022/12/09 02:38:47;;;;;;;18.30;6.53;;;1.20;99.90;;;;;;10102346;28;20107;-64
2022/12/09 02:43:41;;;;;;;14.75;6.32;;;1.40;99.90;;;;;;10117588;28;20032;-63
2022/12/09 02:48:36;;;;;;;23.38;10.15;;;1.40;99.90;;;;;;10119104;28;20471;-62
2022/12/09 02:53:27;;;;;;;19.85;8.27;;;1.40;99.90;;;;;;10107261;28;20029;-63
2022/12/09 02:58:18;;;;;;;18.60;7.47;;;1.10;99.90;;;;;;10102694;28;20061;-65
2022/12/09 03:03:13;;;;;;;12.40;6.70;;;1.10;99.90;;;;;;10119923;28;20040;-63
2022/12/09 03:08:34;;;;;;;14.45;6.70;;;1.20;99.90;;;;;;10118554;28;20047;-62
2022/12/09 03:13:43;;;;;;;11.98;6.97;;;1.30;99.90;;;;;;10117466;28;20113;-63
2022/12/09 03:18:38;;;;;;;16.70;7.18;;;1.20;99.90;;;;;;10097326;28;20542;-64
2022/12/09 03:23:30;;;;;;;12.07;6.05;;;1.30;99.90;;;;;;10117449;28;20070;-63
2022/12/09 03:28:27;;;;;;;11.85;6.20;;;1.10;99.90;;;;;;10117908;28;20024;-62
2022/12/09 03:33:20;;;;;;;15.90;6.55;;;1.10;99.90;;;;;;10119193;28;20121;-63
2022/12/09 03:38:15;;;;;;;12.07;6.05;;;1.00;99.90;;;;;;10107230;28;20352;-62
2022/12/09 03:43:17;;;;;;;16.27;7.00;;;1.00;99.90;;;;;;10120541;28;20052;-63
2022/12/09 03:48:08;;;;;;;16.63;7.10;;;1.00;99.90;;;;;;10115582;28;20430;-63
2022/12/09 03:53:14;;;;;;;15.45;6.82;;;1.00;99.90;;;;;;10108550;28;20037;-64
2022/12/09 03:58:08;;;;;;;12.40;5.70;;;0.90;99.90;;;;;;10114394;28;20095;-63
2022/12/09 04:02:59;;;;;;;17.55;7.53;;;0.80;99.90;;;;;;10117529;28;20625;-64
2022/12/09 04:07:49;;;;;;;14.38;6.32;;;0.70;99.90;;;;;;10113642;28;20100;-65
2022/12/09 04:12:40;;;;;;;18.20;6.55;;;0.70;99.90;;;;;;10127576;28;20092;-63
2022/12/09 04:17:31;;;;;;;11.70;5.82;;;0.70;99.90;;;;;;10098244;28;20033;-64
2022/12/09 04:22:22;;;;;;;12.23;5.80;;;0.60;99.90;;;;;;10126356;28;20359;-62
2022/12/09 04:27:12;;;;;;;16.08;5.72;;;0.50;99.90;;;;;;10118436;28;20395;-66
2022/12/09 04:32:03;;;;;;;10.43;4.97;;;0.60;99.90;;;;;;10131529;28;20033;-64
2022/12/09 04:36:53;;;;;;;9.02;4.85;;;0.50;99.90;;;;;;10113176;28;20025;-65
2022/12/09 04:41:44;;;;;;;9.35;5.95;;;0.60;99.90;;;;;;10126846;28;20025;-66
2022/12/09 04:46:35;;;;;;;10.15;5.32;;;0.80;99.90;;;;;;10115520;28;20060;-66
2022/12/09 04:51:25;;;;;;;13.13;5.18;;;0.90;99.90;;;;;;10126337;28;20567;-65
2022/12/09 04:56:18;;;;;;;8.85;4.10;;;0.90;99.90;;;;;;10121602;28;20553;-64
2022/12/09 05:01:11;;;;;;;10.43;4.95;;;0.90;99.90;;;;;;10110551;28;20035;-64
2022/12/09 05:06:04;;;;;;;8.65;4.45;;;0.80;99.90;;;;;;10130977;28;20019;-63
2022/12/09 05:10:55;;;;;;;9.65;4.47;;;0.70;99.90;;;;;;10128006;28;20044;-63
2022/12/09 05:15:46;;;;;;;13.77;5.70;;;0.80;99.90;;;;;;10114241;28;20029;-64
2022/12/09 05:20:39;;;;;;;10.20;4.85;;;0.80;99.90;;;;;;10115341;28;20107;-69
2022/12/09 05:25:30;;;;;;;9.90;4.60;;;0.90;99.90;;;;;;10113150;28;20495;-64
2022/12/09 05:30:20;;;;;;;8.25;4.28;;;1.00;99.90;;;;;;10117090;28;20073;-64
2022/12/09 05:35:11;;;;;;;11.20;5.70;;;1.00;99.90;;;;;;10123546;28;20017;-64
2022/12/09 05:40:02;;;;;;;9.43;4.95;;;0.90;99.90;;;;;;10107658;28;20411;-66
2022/12/09 05:44:54;;;;;;;11.00;4.85;;;0.90;99.90;;;;;;10104044;28;20059;-65
2022/12/09 05:49:45;;;;;;;12.70;5.63;;;0.80;99.90;;;;;;10129498;28;20440;-65
2022/12/09 05:54:36;;;;;;;8.73;4.18;;;0.80;99.90;;;;;;10062874;28;1117623;-66
2022/12/09 05:59:26;;;;;;;8.70;5.82;;;0.90;99.90;;;;;;10107000;28;20039;-66
2022/12/09 06:04:17;;;;;;;14.65;5.60;;;0.90;99.90;;;;;;10131901;28;20079;-64
2022/12/09 06:09:10;;;;;;;13.40;6.32;;;0.90;99.90;;;;;;10132036;28;20023;-63
2022/12/09 06:14:00;;;;;;;10.50;4.90;;;1.00;99.90;;;;;;10125084;28;20021;-66
2022/12/09 06:18:51;;;;;;;11.73;6.00;;;0.90;99.90;;;;;;10126919;28;20029;-65
2022/12/09 06:23:42;;;;;;;9.88;4.75;;;0.90;99.90;;;;;;10117363;28;20395;-67
2022/12/09 06:28:33;;;;;;;12.05;5.68;;;1.00;99.90;;;;;;10114229;28;20020;-67
2022/12/09 06:33:24;;;;;;;9.25;4.22;;;1.00;99.90;;;;;;10126929;28;20429;-66
2022/12/09 06:38:15;;;;;;;12.75;4.93;;;1.00;99.90;;;;;;10109300;28;20024;-69
2022/12/09 06:43:05;;;;;;;10.75;5.22;;;1.00;99.90;;;;;;10109496;28;20407;-68
2022/12/09 06:47:56;;;;;;;11.50;4.93;;;0.90;99.90;;;;;;10113324;28;20025;-65
2022/12/09 06:52:46;;;;;;;7.13;3.45;;;1.00;99.90;;;;;;10108251;28;20087;-66
2022/12/09 06:57:37;;;;;;;8.35;4.43;;;1.00;99.90;;;;;;10112252;28;20426;-65
2022/12/09 07:02:28;;;;;;;6.90;4.13;;;1.00;99.90;;;;;;10127100;28;20039;-64
2022/12/09 07:07:18;;;;;;;6.65;3.80;;;1.00;99.90;;;;;;10116020;28;20650;-64
2022/12/09 07:12:09;;;;;;;8.73;4.35;;;1.10;99.90;;;;;;10126734;28;20036;-63
2022/12/09 07:17:00;;;;;;;5.20;3.15;;;1.00;99.90;;;;;;10120079;28;20494;-63
2022/12/09 07:21:50;;;;;;;5.70;3.83;;;1.00;99.90;;;;;;10119564;28;20028;-64
2022/12/09 07:26:41;;;;;;;5.82;3.60;;;1.10;99.90;;;;;;10113486;28;20028;-65
2022/12/09 07:31:33;;;;;;;5.03;2.95;;;1.10;99.90;;;;;;10124836;28;20407;-65
2022/12/09 07:36:26;;;;;;;4.57;2.75;;;1.20;99.90;;;;;;10108581;28;20017;-62
2022/12/09 07:41:17;;;;;;;6.20;3.53;;;1.30;99.90;;;;;;10118215;28;20123;-66
2022/12/09 07:46:07;;;;;;;9.57;4.00;;;1.20;99.90;;;;;;10135961;28;20099;-73
2022/12/09 07:51:03;;;;;;;7.15;3.75;;;1.30;99.90;;;;;;10135383;28;20025;-70
2022/12/09 07:55:54;;;;;;;7.63;3.70;;;1.30;99.90;;;;;;10134332;28;20183;-68
2022/12/09 08:00:45;;;;;;;7.35;4.43;;;1.30;99.90;;;;;;10134723;28;20099;-65
2022/12/09 08:05:35;;;;;;;6.35;3.50;;;1.30;99.90;;;;;;10134942;28;20213;-73
2022/12/09 08:10:26;;;;;;;5.57;3.47;;;1.40;99.90;;;;;;10126682;28;20491;-63
2022/12/09 08:15:18;;;;;;;7.82;3.63;;;1.50;99.90;;;;;;10131355;28;20445;-61
2022/12/09 08:20:09;;;;;;;8.57;2.92;;;1.70;99.90;;;;;;10135187;28;20479;-61
2022/12/09 08:25:00;;;;;;;8.60;3.58;;;1.70;99.90;;;;;;10133716;28;20112;-63
2022/12/09 08:29:51;;;;;;;8.80;3.85;;;1.70;99.90;;;;;;10134416;28;20032;-63
2022/12/09 08:34:41;;;;;;;8.00;3.15;;;1.70;99.90;;;;;;10132401;28;20036;-58
2022/12/09 08:39:32;;;;;;;10.13;3.67;;;1.70;99.90;;;;;;10133337;28;20024;-59
2022/12/09 08:44:23;;;;;;;8.32;3.42;;;1.60;99.90;;;;;;10133323;28;20502;-59
2022/12/09 08:49:18;;;;;;;8.77;3.63;;;1.50;99.90;;;;;;10134058;28;20076;-60
2022/12/09 08:54:09;;;;;;;5.80;3.50;;;1.70;99.90;;;;;;10133396;28;20035;-60
2022/12/09 08:59:00;;;;;;;7.80;3.25;;;1.80;99.90;;;;;;10133631;28;20282;-64
2022/12/09 09:03:51;;;;;;;6.53;3.40;;;1.80;99.90;;;;;;10132874;28;20017;-61
2022/12/09 09:08:42;;;;;;;5.30;2.90;;;1.80;99.90;;;;;;10134801;28;20020;-71
2022/12/09 09:13:32;;;;;;;7.68;4.20;;;1.90;99.90;;;;;;10130967;28;20032;-62
2022/12/09 09:18:24;;;;;;;8.05;4.05;;;1.90;99.90;;;;;;10132523;28;20154;-61
2022/12/09 09:23:15;;;;;;;5.18;2.85;;;1.90;99.90;;;;;;10129688;28;20020;-62
2022/12/09 09:28:06;;;;;;;5.60;3.47;;;1.90;99.90;;;;;;10110449;28;20055;-59
2022/12/09 09:32:57;;;;;;;6.15;3.03;;;2.10;99.90;;;;;;10128961;28;20402;-71
2022/12/09 09:37:47;;;;;;;6.97;3.67;;;2.20;99.90;;;;;;10118916;28;20562;-69
2022/12/09 09:42:46;;;;;;;7.50;3.90;;;2.30;99.90;;;;;;10121997;28;20509;-65
2022/12/09 09:47:43;;;;;;;9.75;4.07;;;2.50;99.90;;;;;;10138396;28;20035;-74
2022/12/09 09:52:37;;;;;;;11.40;4.88;;;2.50;99.90;;;;;;10107103;28;20447;-60
2022/12/09 09:57:58;;;;;;;9.13;4.55;;;2.70;99.90;;;;;;10106769;28;20056;-61
2022/12/09 10:03:08;;;;;;;7.97;4.63;;;2.80;99.90;;;;;;10115766;28;20036;-61
2022/12/09 10:08:25;;;;;;;12.15;5.40;;;2.90;99.90;;;;;;10121139;28;20025;-61
2022/12/09 10:13:46;;;;;;;9.27;4.57;;;3.20;99.90;;;;;;10104963;28;20040;-62
2022/12/09 10:18:51;;;;;;;13.07;5.55;;;3.20;99.90;;;;;;10134871;28;20048;-62
2022/12/09 10:23:44;;;;;;;5.70;4.65;;;3.20;99.90;;;;;;10137171;28;20123;-61
2022/12/09 10:28:40;;;;;;;7.90;3.65;;;3.40;99.90;;;;;;10137178;28;20020;-61
2022/12/09 10:33:34;;;;;;;8.63;4.93;;;3.40;99.90;;;;;;10138932;28;20127;-58
2022/12/09 10:38:27;;;;;;;12.45;4.60;;;3.30;99.90;;;;;;10136389;28;20055;-62
2022/12/09 10:43:33;;;;;;;8.35;4.30;;;3.20;99.90;;;;;;10116589;28;20126;-60
2022/12/09 10:48:29;;;;;;;7.90;4.82;;;3.10;99.90;;;;;;10135536;28;20036;-59
2022/12/09 10:53:19;;;;;;;11.77;4.90;;;3.10;99.90;;;;;;10134854;28;20549;-62
2022/12/09 10:58:23;;;;;;;10.25;5.57;;;3.20;99.90;;;;;;10135158;28;20377;-61
2022/12/09 11:03:37;;;;;;;8.93;5.28;;;3.30;99.90;;;;;;10135988;28;20521;-59
2022/12/09 11:08:28;;;;;;;11.70;5.03;;;3.50;99.90;;;;;;10134399;28;20078;-61
2022/12/09 11:13:23;;;;;;;9.70;5.28;;;3.60;99.90;;;;;;10117471;28;20094;-65
2022/12/09 11:18:31;;;;;;;8.18;5.20;;;3.70;99.90;;;;;;10116457;28;20029;-60
2022/12/09 11:23:21;;;;;;;9.73;4.60;;;3.90;99.90;;;;;;10120474;28;20184;-60
2022/12/09 11:28:15;;;;;;;12.27;5.65;;;3.80;99.90;;;;;;10117032;28;20123;-61
2022/12/09 11:33:12;;;;;;;10.57;5.18;;;4.20;99.90;;;;;;10118046;28;20037;-62
2022/12/09 11:38:23;;;;;;;6.88;4.65;;;4.30;99.90;;;;;;10114924;28;20024;-60
2022/12/09 11:43:14;;;;;;;9.48;4.95;;;4.10;99.90;;;;;;10107021;28;20017;-60
2022/12/09 11:48:27;;;;;;;10.30;4.93;;;3.90;99.90;;;;;;10120530;28;20040;-61
2022/12/09 11:53:30;;;;;;;8.90;5.10;;;3.90;99.90;;;;;;10105396;28;20036;-60
2022/12/09 11:58:29;;;;;;;10.40;5.50;;;4.00;99.90;;;;;;10114276;28;20053;-60
2022/12/09 12:03:28;;;;;;;8.50;5.05;;;3.90;99.90;;;;;;10111743;28;20112;-61
2022/12/09 12:08:34;;;;;;;8.40;4.65;;;4.10;99.90;;;;;;10119451;28;20062;-62
2022/12/09 12:13:46;;;;;;;9.43;5.03;;;4.10;99.90;;;;;;10110827;28;20520;-62
2022/12/09 12:18:58;;;;;;;9.43;4.63;;;4.00;99.90;;;;;;10126019;28;20267;-61
2022/12/09 12:24:06;;;;;;;7.10;4.38;;;3.90;99.90;;;;;;10135903;28;20016;-60
2022/12/09 12:29:07;;;;;;;12.00;5.63;;;3.90;99.90;;;;;;10117559;28;20062;-62
2022/12/09 12:34:11;;;;;;;7.60;4.68;;;3.90;99.90;;;;;;10129390;28;20056;-61
2022/12/09 12:39:23;;;;;;;9.07;5.43;;;3.90;99.90;;;;;;10131101;28;20052;-61
2022/12/09 12:50:05;;;;;;;8.60;5.18;;;3.80;99.90;;;;;;10118903;28;20132;-61
2022/12/09 12:55:02;;;;;;;8.95;5.70;;;3.80;99.90;;;;;;10119211;28;20076;-60
2022/12/09 12:59:55;;;;;;;15.02;5.75;;;3.90;99.90;;;;;;10129287;28;20028;-68
2022/12/09 13:04:52;;;;;;;10.38;5.78;;;3.80;99.90;;;;;;10122789;28;20029;-61
2022/12/09 13:09:52;;;;;;;10.88;5.78;;;3.90;99.90;;;;;;10129250;28;20122;-64
2022/12/09 13:14:53;;;;;;;9.40;5.55;;;3.80;99.90;;;;;;10121524;28;20052;-63
2022/12/09 13:19:50;;;;;;;9.63;5.55;;;3.90;99.90;;;;;;10122335;28;20040;-71
2022/12/09 13:25:11;;;;;;;10.55;5.78;;;3.90;99.90;;;;;;10123839;28;20064;-66
2022/12/09 13:30:15;;;;;;;8.80;5.10;;;3.90;99.90;;;;;;10113331;28;20055;-61
2022/12/09 13:35:30;;;;;;;7.43;5.50;;;4.00;99.90;;;;;;10129672;28;20024;-60
2022/12/09 13:40:37;;;;;;;12.75;5.85;;;4.00;99.90;;;;;;10099836;28;20032;-70
2022/12/09 13:45:34;;;;;;;12.18;6.68;;;4.00;99.90;;;;;;10135928;28;20024;-73
2022/12/09 13:50:50;;;;;;;11.68;5.88;;;4.00;99.90;;;;;;10138603;28;20489;-62
2022/12/09 13:56:02;;;;;;;10.45;5.50;;;3.90;99.90;;;;;;10108464;28;20057;-63
2022/12/09 14:01:02;;;;;;;9.68;5.93;;;3.90;99.90;;;;;;10099959;28;20035;-62
2022/12/09 14:05:57;;;;;;;8.75;5.55;;;3.90;99.90;;;;;;10138505;28;20032;-62
2022/12/09 14:10:50;;;;;;;11.27;5.87;;;3.90;99.90;;;;;;10134228;28;20406;-62
2022/12/09 14:15:41;;;;;;;13.13;5.85;;;3.90;99.90;;;;;;10129220;28;20621;-61
2022/12/09 14:20:35;;;;;;;13.63;6.88;;;3.80;99.90;;;;;;10135562;28;20032;-63
2022/12/09 14:25:32;;;;;;;11.30;5.25;;;3.90;99.90;;;;;;10137460;28;20021;-64
2022/12/09 14:30:22;;;;;;;13.23;6.50;;;3.90;99.90;;;;;;10137889;28;20072;-62
2022/12/09 14:35:13;;;;;;;14.27;5.80;;;3.90;99.90;;;;;;10137050;28;20107;-65
2022/12/09 14:40:25;;;;;;;14.25;7.03;;;3.90;99.90;;;;;;10135096;28;20032;-62
2022/12/09 14:45:23;;;;;;;14.50;6.63;;;3.80;99.90;;;;;;10135406;28;20097;-64
2022/12/09 14:50:26;;;;;;;9.82;5.13;;;3.80;99.90;;;;;;10120270;28;20115;-69
2022/12/09 14:55:17;;;;;;;12.45;5.95;;;3.80;99.90;;;;;;10126486;28;20044;-65
2022/12/09 15:00:30;;;;;;;14.25;6.22;;;3.70;99.90;;;;;;10124845;28;20048;-67
2022/12/09 15:05:22;;;;;;;11.18;5.90;;;3.60;99.90;;;;;;10126278;28;20078;-68
2022/12/09 15:10:32;;;;;;;11.05;5.55;;;3.70;99.90;;;;;;10126917;28;20524;-60
2022/12/09 15:15:26;;;;;;;10.18;6.32;;;3.70;99.90;;;;;;10115480;28;20033;-68
2022/12/09 15:20:23;;;;;;;15.55;5.68;;;3.70;99.90;;;;;;10110983;28;20028;-67
2022/12/09 15:25:21;;;;;;;12.60;6.75;;;3.50;99.90;;;;;;10117759;28;20202;-63
2022/12/09 15:30:23;;;;;;;12.52;5.40;;;3.50;99.90;;;;;;10105370;28;20041;-61
2022/12/09 15:35:22;;;;;;;15.23;6.18;;;3.50;99.90;;;;;;10091902;28;20029;-62
2022/12/09 15:40:17;;;;;;;13.40;5.47;;;3.40;99.90;;;;;;10109449;28;20031;-65
2022/12/09 15:45:13;;;;;;;10.57;5.00;;;3.40;99.90;;;;;;10105552;28;20067;-63
2022/12/09 15:50:17;;;;;;;10.63;4.95;;;3.40;99.90;;;;;;10113559;28;20098;-70
2022/12/09 15:55:13;;;;;;;11.20;5.65;;;3.30;99.90;;;;;;10113300;28;20040;-66
2022/12/09 16:00:05;;;;;;;11.85;6.47;;;3.30;99.90;;;;;;10111037;28;20120;-62
2022/12/09 16:05:02;;;;;;;10.68;5.97;;;3.30;99.90;;;;;;10122134;28;20079;-59
2022/12/09 16:10:11;;;;;;;10.90;5.32;;;3.30;99.90;;;;;;10118788;28;20433;-65
2022/12/09 16:15:05;;;;;;;11.98;6.28;;;3.30;99.90;;;;;;10111889;28;20032;-66
2022/12/09 16:19:56;;;;;;;18.73;8.15;;;3.40;99.90;;;;;;10115319;28;20098;-72
2022/12/09 16:25:00;;;;;;;10.63;5.35;;;3.30;99.90;;;;;;10136943;28;20028;-66
2022/12/09 16:29:55;;;;;;;14.13;6.80;;;3.40;99.90;;;;;;10140887;28;20028;-67
2022/12/09 16:35:06;;;;;;;19.65;6.72;;;3.30;99.90;;;;;;10139401;28;20048;-66
2022/12/09 16:39:58;;;;;;;16.88;7.38;;;3.30;99.90;;;;;;10123709;28;20526;-61
2022/12/09 16:44:49;;;;;;;12.65;5.82;;;3.30;99.90;;;;;;10142428;28;20151;-58
2022/12/09 16:49:41;;;;;;;15.38;6.53;;;3.40;99.90;;;;;;10141604;28;20116;-55
2022/12/09 16:54:32;;;;;;;13.43;5.82;;;3.50;99.90;;;;;;10140422;28;20044;-55
2022/12/09 16:59:22;;;;;;;13.73;6.88;;;3.50;99.90;;;;;;10137966;28;20387;-55
2022/12/09 17:04:23;;;;;;;13.13;6.13;;;3.50;99.90;;;;;;10140372;28;20036;-55
2022/12/09 17:09:14;;;;;;;14.65;6.10;;;3.60;99.90;;;;;;10139037;28;20131;-54
2022/12/09 17:14:04;;;;;;;15.80;7.43;;;3.40;99.90;;;;;;10136096;28;20124;-59
2022/12/09 17:18:55;;;;;;;15.77;6.60;;;3.50;99.90;;;;;;10130017;28;20509;-59
2022/12/09 17:23:46;;;;;;;13.52;6.28;;;3.50;99.90;;;;;;10120890;28;20386;-58
2022/12/09 17:28:38;;;;;;;15.02;6.88;;;3.40;99.90;;;;;;10120374;28;20082;-58
2022/12/09 17:33:29;;;;;;;14.68;6.97;;;3.50;99.90;;;;;;10122205;28;20029;-59
2022/12/09 17:38:19;;;;;;;13.52;7.28;;;3.50;99.90;;;;;;10109706;28;20311;-57
2022/12/09 17:43:10;;;;;;;15.25;6.45;;;3.50;99.90;;;;;;10099787;28;20017;-57
2022/12/09 17:48:01;;;;;;;19.33;8.40;;;3.60;99.90;;;;;;10119311;28;20391;-58
2022/12/09 17:52:52;;;;;;;10.25;5.63;;;3.50;99.90;;;;;;10106061;28;20048;-57
2022/12/09 17:57:42;;;;;;;20.73;7.07;;;3.50;99.90;;;;;;10110320;28;20048;-57
2022/12/09 18:02:33;;;;;;;14.90;7.03;;;3.50;99.90;;;;;;10124707;28;20414;-58
2022/12/09 18:07:24;;;;;;;11.88;6.50;;;3.40;99.90;;;;;;10109856;28;20038;-56
2022/12/09 18:12:14;;;;;;;20.63;8.25;;;3.50;99.90;;;;;;10126692;28;20032;-57
2022/12/09 18:17:05;;;;;;;14.27;7.55;;;3.40;99.90;;;;;;10120411;28;20028;-59
2022/12/09 18:21:56;;;;;;;12.07;6.60;;;3.40;99.90;;;;;;10116887;28;20395;-61
2022/12/09 18:26:47;;;;;;;17.48;8.48;;;3.40;99.90;;;;;;10109781;28;20071;-59
2022/12/09 18:31:38;;;;;;;15.13;7.97;;;3.40;99.90;;;;;;10124968;28;20418;-55
2022/12/09 18:36:29;;;;;;;12.82;6.70;;;3.50;99.90;;;;;;10102045;28;20025;-57
2022/12/09 18:41:27;;;;;;;18.27;9.05;;;3.50;99.90;;;;;;10119602;28;20107;-57
2022/12/09 18:46:27;;;;;;;14.68;8.52;;;3.50;99.90;;;;;;10116058;28;20394;-57
2022/12/09 18:51:20;;;;;;;19.42;8.32;;;3.40;99.90;;;;;;10117960;28;20033;-54
2022/12/09 18:56:11;;;;;;;17.52;8.30;;;3.50;99.90;;;;;;10116984;28;20036;-58
2022/12/09 19:01:13;;;;;;;16.23;7.05;;;3.50;99.90;;;;;;10118144;28;20039;-58
2022/12/09 19:06:04;;;;;;;17.00;7.70;;;3.50;99.90;;;;;;10104723;28;20043;-57
2022/12/09 19:10:54;;;;;;;19.98;7.63;;;3.60;99.90;;;;;;10130332;28;20041;-65
2022/12/09 19:15:45;;;;;;;16.35;8.55;;;3.60;99.90;;;;;;10113558;28;20025;-64
2022/12/09 19:20:35;;;;;;;21.48;9.45;;;3.60;99.90;;;;;;10112881;28;20394;-62
2022/12/09 19:25:26;;;;;;;20.33;9.45;;;3.60;99.90;;;;;;10126562;28;20170;-62
2022/12/09 19:30:17;;;;;;;19.63;8.32;;;3.70;99.90;;;;;;10110499;28;20029;-60
2022/12/09 19:35:08;;;;;;;17.58;8.15;;;3.70;99.90;;;;;;10116973;28;20506;-58
2022/12/09 19:39:58;;;;;;;17.85;7.80;;;3.50;99.90;;;;;;10109131;28;20510;-58
2022/12/09 19:44:49;;;;;;;26.88;9.98;;;3.50;99.90;;;;;;10106230;28;20029;-57
2022/12/09 19:49:42;;;;;;;22.02;7.78;;;3.60;99.90;;;;;;10107998;28;20517;-59
2022/12/09 19:54:33;;;;;;;18.55;8.07;;;3.50;99.90;;;;;;10113999;28;20035;-57
2022/12/09 19:59:25;;;;;;;18.60;7.70;;;3.60;99.90;;;;;;10107237;28;20032;-58
2022/12/09 20:04:19;;;;;;;14.52;7.38;;;3.70;99.90;;;;;;10116409;28;20028;-57
2022/12/09 20:09:12;;;;;;;15.68;7.90;;;3.60;99.90;;;;;;10125900;28;20081;-61
2022/12/09 20:14:05;;;;;;;16.90;9.20;;;3.60;99.90;;;;;;10109804;28;20039;-62
2022/12/09 20:18:57;;;;;;;11.75;7.20;;;3.60;99.90;;;;;;10118013;28;20508;-59
2022/12/09 20:23:49;;;;;;;16.35;7.50;;;3.50;99.90;;;;;;10130746;28;20020;-58
2022/12/09 20:28:41;;;;;;;17.70;7.90;;;3.60;99.90;;;;;;10118428;28;20040;-57
2022/12/09 20:33:33;;;;;;;19.30;7.22;;;3.60;99.90;;;;;;10118685;28;20065;-59
2022/12/09 20:38:23;;;;;;;16.70;8.15;;;3.50;99.90;;;;;;10116314;28;20017;-60
2022/12/09 20:43:14;;;;;;;15.70;6.88;;;3.50;99.90;;;;;;10098201;28;20086;-59
2022/12/09 20:48:05;;;;;;;22.83;7.72;;;3.50;99.90;;;;;;10129346;28;20035;-58
2022/12/09 20:52:55;;;;;;;19.58;8.50;;;3.50;99.90;;;;;;10122142;28;20712;-59
2022/12/09 20:57:46;;;;;;;14.40;7.57;;;3.50;99.90;;;;;;10114819;28;20041;-57
2022/12/09 21:02:38;;;;;;;21.15;8.27;;;3.50;99.90;;;;;;10112440;28;20036;-57
2022/12/09 21:07:29;;;;;;;16.10;7.63;;;3.40;99.90;;;;;;10130292;28;20088;-62
2022/12/09 21:12:20;;;;;;;14.45;7.95;;;3.40;99.90;;;;;;10128074;28;20164;-59
2022/12/09 21:17:10;;;;;;;16.00;8.98;;;3.40;99.90;;;;;;10134644;28;20245;-59
2022/12/09 21:22:03;;;;;;;17.02;7.82;;;3.50;99.90;;;;;;10131133;28;20055;-57
2022/12/09 21:26:55;;;;;;;17.27;7.38;;;3.50;99.90;;;;;;10138893;28;20033;-55
2022/12/09 21:31:47;;;;;;;13.25;8.18;;;3.60;99.90;;;;;;10116985;28;20059;-58
2022/12/09 21:36:42;;;;;;;18.20;8.07;;;3.60;99.90;;;;;;10125961;28;20024;-60
2022/12/09 21:41:35;;;;;;;17.63;7.25;;;3.70;99.90;;;;;;10126245;28;20023;-58
2022/12/09 21:46:28;;;;;;;16.15;7.70;;;3.70;99.90;;;;;;10130335;28;20092;-60
2022/12/09 21:51:20;;;;;;;16.58;7.57;;;3.60;99.90;;;;;;10122031;28;20514;-59
2022/12/09 21:56:17;;;;;;;15.35;7.65;;;3.60;99.90;;;;;;10129623;28;20338;-59
2022/12/09 22:01:20;;;;;;;18.23;7.78;;;3.60;99.90;;;;;;10105185;28;20087;-60
2022/12/09 22:06:11;;;;;;;15.88;7.78;;;3.60;99.90;;;;;;10110699;28;20503;-59
2022/12/09 22:11:17;;;;;;;17.50;7.47;;;3.70;99.90;;;;;;10119736;28;20050;-59
2022/12/09 22:16:11;;;;;;;15.07;7.40;;;3.70;99.90;;;;;;10119955;28;20618;-59
2022/12/09 22:21:08;;;;;;;18.42;7.85;;;3.70;99.90;;;;;;10107183;28;20032;-60
2022/12/09 22:26:06;;;;;;;17.23;7.22;;;3.60;99.90;;;;;;10109540;28;20108;-60
2022/12/09 22:30:57;;;;;;;17.92;7.57;;;3.60;99.90;;;;;;10119450;28;20040;-60
2022/12/09 22:35:47;;;;;;;14.23;6.63;;;3.60;99.90;;;;;;10110183;28;20506;-64
2022/12/09 22:40:38;;;;;;;16.13;6.40;;;3.70;99.90;;;;;;10109040;28;20037;-60
2022/12/09 22:45:29;;;;;;;17.67;7.10;;;3.60;99.90;;;;;;10126395;28;20021;-60
2022/12/09 22:50:20;;;;;;;14.65;7.13;;;3.50;99.90;;;;;;10124391;28;20119;-62
2022/12/09 22:55:11;;;;;;;17.27;7.25;;;3.50;99.90;;;;;;10121620;28;20506;-61
2022/12/09 23:00:04;;;;;;;14.35;7.00;;;3.50;99.90;;;;;;10123142;28;20044;-60
2022/12/09 23:04:54;;;;;;;13.32;6.55;;;3.50;99.90;;;;;;10117776;28;20449;-62
2022/12/09 23:09:45;;;;;;;14.02;6.32;;;3.70;99.90;;;;;;10106423;28;20074;-59
2022/12/09 23:14:36;;;;;;;17.98;7.38;;;3.60;99.90;;;;;;10115254;28;20024;-59
2022/12/09 23:19:26;;;;;;;13.93;6.20;;;3.50;99.90;;;;;;10115973;28;20024;-59
2022/12/09 23:24:17;;;;;;;17.50;7.68;;;3.60;99.90;;;;;;10124577;28;20025;-59
2022/12/09 23:29:14;;;;;;;16.83;6.40;;;3.60;99.90;;;;;;10118476;28;20025;-59
2022/12/09 23:34:07;;;;;;;11.43;6.70;;;3.50;99.90;;;;;;10122382;28;20033;-60
2022/12/09 23:38:59;;;;;;;12.48;6.97;;;3.70;99.90;;;;;;10106272;28;20040;-60
2022/12/09 23:43:50;;;;;;;15.32;6.53;;;3.70;99.90;;;;;;10103915;28;20032;-60
2022/12/09 23:48:42;;;;;;;18.10;8.45;;;3.60;99.90;;;;;;10126304;28;20172;-59
2022/12/09 23:53:32;;;;;;;13.65;7.57;;;3.60;99.90;;;;;;10109586;28;20029;-59
2022/12/09 23:58:23;;;;;;;17.45;7.45;;;3.50;99.90;;;;;;10118589;28;20503;-60
